Mattice, Canada
Current Conditions -  °F | °C
As of 9:09 PM on Monday 24 Nov 2014 (Local Time) from CYYU Reporting Station
Light Snow Light Snow  
Wind Chill:   Ceiling: 1200
Heat Index: 21°   Visibility: 9mi
Dew Point: 18°   Wind: 16mph
Humidity: 86%   Direction: 330°NNW
Pressure: 29.3"   Gusts: NA
Location:  49.61°N, 83.26°W
Report Text: CYYU 250209Z 33014KT 9SM -SN DRSN FEW008 OVC012 M06/M08 A2930 RMK SF2SC6 SLP936
Loading
Personal Weather Stations






























Interactive Weather Map New forecast layout! Learn more

10-Day Weather Forecast

Advertisements
Track Severe Weather on mobile